KHOP/HOP METAR and TAF weather

Enter ICAO airport designator
Station Type Date Time Source
KHOP METAR 2021/05/14 06:56 UTC NOAA

KHOP 140656Z AUTO 00000KT 10SM CLR 08/06 A3028 RMK AO2 SLPNO T00830056 $


Station Type Date Time Source
KHOP Decoded METAR 2021/05/14 06:56 UTC NOAA

Fort Campbell U. S. Army Airfield, KY, United States (KHOP) 36-40N 087-30W 174M
May 14, 2021 - 02:56 AM EDT / 2021.05.14 0656 UTC
Wind: Calm:0
Visibility: 10 mile(s):0
Sky conditions: clear
Temperature: 46.9 F (8.3 C)
Dew Point: 42.1 F (5.6 C)
Relative Humidity: 83%
Pressure (altimeter): 30.28 in. Hg (1025 hPa)
ob: KHOP 140656Z AUTO 00000KT 10SM CLR 08/06 A3028 RMK AO2 SLPNO T00830056
cycle: 7

Station Type Date Time Source
KHOP TAF 2021/05/14 00:59 UTC NOAA

TAF KHOP 140000Z 1400/1506 VRB06KT 9999 FEW065 QNH3025INS TX20/1421Z TN05/1411Z

Example: see airport list